Observation data for McLean on 08/15/2019      Previous  Date       Current Mesonet Observations  Soil Data  Daily Summary Page  Observations in Plain Language
KMCS 150500Z 14004KT 24/17 A3016 RMK A01 T02380168  RH  068%=      5-min Rain = 0
KMCS 150505Z 15004KT 24/17 A3016 RMK A01 T02380168  RH  068%=      5-min Rain = 0
KMCS 150510Z 14005KT 24/17 A3016 RMK A01 T02380168  RH  068%=      5-min Rain = 0
KMCS 150515Z 14005KT 24/17 A3016 RMK A01 T02380168  RH  068%=      5-min Rain = 0
KMCS 150520Z 15005KT 24/17 A3016 RMK A01 T02390167  RH  067%=      5-min Rain = 0
KMCS 150525Z 15005KT 24/17 A3016 RMK A01 T02400167  RH  067%=      5-min Rain = 0
KMCS 150530Z 15006KT 24/17 A3015 RMK A01 T02400167  RH  067%=      5-min Rain = 0
KMCS 150535Z 15006KT 24/17 A3015 RMK A01 T02400166  RH  067%=      5-min Rain = 0
KMCS 150540Z 15006KT 24/17 A3015 RMK A01 T02380166  RH  067%=      5-min Rain = 0
KMCS 150545Z 14006KT 24/17 A3015 RMK A01 T02370166  RH  068%=      5-min Rain = 0
KMCS 150550Z 14006KT 24/17 A3015 RMK A01 T02360166  RH  068%=      5-min Rain = 0
KMCS 150555Z 15006KT 24/17 A3015 RMK A01 T02370166  RH  067%=      5-min Rain = 0
KMCS 150600Z 15005KT 24/17 A3015 RMK A01 T02390166  RH  067%=      5-min Rain = 0
KMCS 150605Z 15005KT 24/17 A3015 RMK A01 T02380167  RH  068%=      5-min Rain = 0
KMCS 150610Z 15005KT 24/17 A3015 RMK A01 T02370167  RH  068%=      5-min Rain = 0
KMCS 150615Z 16006KT 24/17 A3015 RMK A01 T02350166  RH  069%=      5-min Rain = 0
KMCS 150620Z 16006KT 23/17 A3014 RMK A01 T02340166  RH  069%=      5-min Rain = 0
KMCS 150625Z 16006KT 24/17 A3014 RMK A01 T02350166  RH  069%=      5-min Rain = 0
KMCS 150630Z 16006KT 23/17 A3014 RMK A01 T02340167  RH  069%=      5-min Rain = 0
KMCS 150635Z 16006KT 24/17 A3014 RMK A01 T02350167  RH  069%=      5-min Rain = 0
KMCS 150640Z 16006KT 24/17 A3014 RMK A01 T02350167  RH  069%=      5-min Rain = 0
KMCS 150645Z 16006KT 24/17 A3014 RMK A01 T02350167  RH  069%=      5-min Rain = 0
KMCS 150650Z 15006KT 23/17 A3014 RMK A01 T02340167  RH  069%=      5-min Rain = 0
KMCS 150655Z 15006KT 23/17 A3013 RMK A01 T02330167  RH  070%=      5-min Rain = 0
KMCS 150700Z 15006KT 23/17 A3013 RMK A01 T02330167  RH  070%=      5-min Rain = 0
KMCS 150705Z 15006KT 23/17 A3014 RMK A01 T02320167  RH  070%=      5-min Rain = 0
KMCS 150710Z 15006KT 23/17 A3014 RMK A01 T02320167  RH  070%=      5-min Rain = 0
KMCS 150715Z 14006KT 23/17 A3014 RMK A01 T02320167  RH  070%=      5-min Rain = 0
KMCS 150720Z 14006KT 23/17 A3014 RMK A01 T02330167  RH  070%=      5-min Rain = 0
KMCS 150725Z 14006KT 23/17 A3013 RMK A01 T02320167  RH  070%=      5-min Rain = 0
KMCS 150730Z 14006KT 23/17 A3013 RMK A01 T02320167  RH  070%=      5-min Rain = 0
KMCS 150735Z 14006KT 23/17 A3013 RMK A01 T02320167  RH  070%=      5-min Rain = 0
KMCS 150740Z 13006KT 23/17 A3013 RMK A01 T02310167  RH  071%=      5-min Rain = 0
KMCS 150745Z 13006KT 23/17 A3013 RMK A01 T02310167  RH  071%=      5-min Rain = 0
KMCS 150750Z 14006KT 23/17 A3013 RMK A01 T02310167  RH  071%=      5-min Rain = 0
KMCS 150755Z 14006KT 23/17 A3013 RMK A01 T02310168  RH  071%=      5-min Rain = 0
KMCS 150800Z 15006KT 23/17 A3013 RMK A01 T02300169  RH  072%=      5-min Rain = 0
KMCS 150805Z 15006KT 23/17 A3013 RMK A01 T02300169  RH  072%=      5-min Rain = 0
KMCS 150810Z 15005KT 23/17 A3013 RMK A01 T02280170  RH  073%=      5-min Rain = 0
KMCS 150815Z 14005KT 23/17 A3013 RMK A01 T02260169  RH  074%=      5-min Rain = 0
KMCS 150820Z 13004KT 22/17 A3013 RMK A01 T02240170  RH  075%=      5-min Rain = 0
KMCS 150825Z 13005KT 22/17 A3013 RMK A01 T02220171  RH  076%=      5-min Rain = 0
KMCS 150830Z 13005KT 22/17 A3013 RMK A01 T02200171  RH  077%=      5-min Rain = 0
KMCS 150835Z 13005KT 22/17 A3013 RMK A01 T02200171  RH  077%=      5-min Rain = 0
KMCS 150840Z 13005KT 22/17 A3013 RMK A01 T02200171  RH  078%=      5-min Rain = 0
KMCS 150845Z 13005KT 22/17 A3012 RMK A01 T02190171  RH  078%=      5-min Rain = 0
KMCS 150850Z 14005KT 22/17 A3012 RMK A01 T02180171  RH  079%=      5-min Rain = 0
KMCS 150855Z 14005KT 22/17 A3012 RMK A01 T02170171  RH  079%=      5-min Rain = 0
KMCS 150900Z 14004KT 22/17 A3012 RMK A01 T02160172  RH  080%=      5-min Rain = 0
KMCS 150905Z 14005KT 22/17 A3012 RMK A01 T02160172  RH  080%=      5-min Rain = 0
KMCS 150910Z 14005KT 22/17 A3012 RMK A01 T02160172  RH  080%=      5-min Rain = 0
KMCS 150915Z 15005KT 22/17 A3012 RMK A01 T02160173  RH  081%=      5-min Rain = 0
KMCS 150920Z 15006KT 22/17 A3012 RMK A01 T02170174  RH  081%=      5-min Rain = 0
KMCS 150925Z 15005KT 22/17 A3012 RMK A01 T02170174  RH  081%=      5-min Rain = 0
KMCS 150930Z 16005KT 22/18 A3012 RMK A01 T02170175  RH  081%=      5-min Rain = 0
KMCS 150935Z 16005KT 22/18 A3012 RMK A01 T02180175  RH  081%=      5-min Rain = 0
KMCS 150940Z 17004KT 22/18 A3013 RMK A01 T02180176  RH  081%=      5-min Rain = 0
KMCS 150945Z 18004KT 22/18 A3013 RMK A01 T02190177  RH  081%=      5-min Rain = 0
KMCS 150950Z 18005KT 22/18 A3013 RMK A01 T02190177  RH  081%=      5-min Rain = 0
KMCS 150955Z 18004KT 22/18 A3013 RMK A01 T02180178  RH  082%=      5-min Rain = 0
KMCS 151000Z 18003KT 22/18 A3013 RMK A01 T02180179  RH  083%=      5-min Rain = 0
KMCS 151005Z 20003KT 22/18 A3013 RMK A01 T02180179  RH  083%=      5-min Rain = 0
KMCS 151010Z 21004KT 22/18 A3012 RMK A01 T02170179  RH  083%=      5-min Rain = 0
KMCS 151015Z 22004KT 22/18 A3013 RMK A01 T02160178  RH  083%=      5-min Rain = 0
KMCS 151020Z 23005KT 21/18 A3013 RMK A01 T02120176  RH  084%=      5-min Rain = 0
KMCS 151025Z 23005KT 21/18 A3013 RMK A01 T02100176  RH  086%=      5-min Rain = 0
KMCS 151030Z 23006KT 21/18 A3013 RMK A01 T02100176  RH  085%=      5-min Rain = 0
KMCS 151035Z 23006KT 21/18 A3013 RMK A01 T02110176  RH  084%=      5-min Rain = 0
KMCS 151040Z 24006KT 21/18 A3013 RMK A01 T02120175  RH  084%=      5-min Rain = 0
KMCS 151045Z 25006KT 21/18 A3014 RMK A01 T02130176  RH  083%=      5-min Rain = 0
KMCS 151050Z 25006KT 22/18 A3014 RMK A01 T02160176  RH  082%=      5-min Rain = 0
KMCS 151055Z 23007KT 22/18 A3014 RMK A01 T02170177  RH  082%=      5-min Rain = 0
KMCS 151100Z 23007KT 22/18 A3014 RMK A01 T02170177  RH  082%=      5-min Rain = 0
KMCS 151105Z 23007KT 22/18 A3014 RMK A01 T02170177  RH  082%=      5-min Rain = 0
KMCS 151110Z 24007KT 22/18 A3014 RMK A01 T02180178  RH  082%=      5-min Rain = 0
KMCS 151115Z 24008KT 22/18 A3014 RMK A01 T02200177  RH  081%=      5-min Rain = 0
KMCS 151120Z 23008KT 22/18 A3014 RMK A01 T02200177  RH  081%=      5-min Rain = 0
KMCS 151125Z 23007KT 22/18 A3013 RMK A01 T02190176  RH  081%=      5-min Rain = 0
KMCS 151130Z 23007KT 22/18 A3013 RMK A01 T02180176  RH  081%=      5-min Rain = 0
KMCS 151135Z 22007KT 22/18 A3013 RMK A01 T02180177  RH  081%=      5-min Rain = 0
KMCS 151140Z 22006KT 22/18 A3012 RMK A01 T02200177  RH  081%=      5-min Rain = 0
KMCS 151145Z 21006KT 22/18 A3012 RMK A01 T02210177  RH  080%=      5-min Rain = 0
KMCS 151150Z 22005KT 22/18 A3014 RMK A01 T02200177  RH  081%=      5-min Rain = 0
KMCS 151155Z 23004KT 22/18 A3014 RMK A01 T02180177  RH  082%=      5-min Rain = 0
KMCS 151200Z 24003KT 22/18 A3015 RMK A01 T02160178  RH  083%=      5-min Rain = 0
KMCS 151205Z 28009G18KT 22/18 A3017 RMK A01 T02150179  RH  084%=      5-min Rain = 0
KMCS 151210Z 29017G25KT 22/18 A3017 RMK A01 T02240175  RH  078%=      5-min Rain = 0
KMCS 151215Z 29015G21KT 23/17 A3018 RMK A01 T02270169  RH  074%=      5-min Rain = 0
KMCS 151220Z 29015G20KT 22/16 A3018 RMK A01 T02240163  RH  072%=      5-min Rain = 0
KMCS 151225Z 29015G22KT 22/16 A3019 RMK A01 T02220160  RH  071%=      5-min Rain = 0
KMCS 151230Z 29018G25KT 22/16 A3019 RMK A01 T02210157  RH  070%=      5-min Rain = 0
KMCS 151235Z 31021G27KT 22/15 A3019 RMK A01 T02160153  RH  070%=      5-min Rain = 0
KMCS 151240Z 31016G21KT 21/15 A3019 RMK A01 T02120152  RH  071%=      5-min Rain = 0
KMCS 151245Z 32014G21KT 21/15 A3019 RMK A01 T02100148  RH  071%=      5-min Rain = 0
KMCS 151250Z 32014G20KT 21/14 A3019 RMK A01 T02090142  RH  068%=      5-min Rain = 0
KMCS 151255Z 32015KT 21/14 A3019 RMK A01 T02090136  RH  066%=      5-min Rain = 0
KMCS 151300Z 33015G20KT 21/13 A3019 RMK A01 T02120132  RH  062%=      5-min Rain = 0
KMCS 151305Z 32013G19KT 22/13 A3019 RMK A01 T02150130  RH  061%=      5-min Rain = 0
KMCS 151310Z 30012G17KT 21/14 A302 RMK A01 T02110135  RH  064%=      5-min Rain = 0
KMCS 151315Z 29015KT 21/14 A302 RMK A01 T02050140  RH  069%=      5-min Rain = 0
KMCS 151320Z 29013KT 20/14 A3019 RMK A01 T02020140  RH  071%=      5-min Rain = 0
KMCS 151325Z 27008G13KT 20/14 A3019 RMK A01 T01990143  RH  073%=      5-min Rain = 0
KMCS 151330Z 27009KT 20/14 A3019 RMK A01 T02000144  RH  073%=      5-min Rain = 0
KMCS 151335Z 26009KT 20/15 A3019 RMK A01 T01960147  RH  077%=      5-min Rain = 0.01
KMCS 151340Z 23009KT 20/15 A3017 RMK A01 T01960149  RH  077%=      5-min Rain = 0.01
KMCS 151345Z 17009KT 20/15 A3015 RMK A01 T02030148  RH  074%=      5-min Rain = 0
KMCS 151350Z 15018G27KT 21/14 A301 RMK A01 T02130140  RH  066%=      5-min Rain = 0.02
KMCS 151355Z 15016KT 23/13 A3008 RMK A01 T02320128  RH  054%=      5-min Rain = 0
KMCS 151400Z 15014G21KT 23/13 A3009 RMK A01 T02300129  RH  055%=      5-min Rain = 0
KMCS 151405Z 16015KT 23/13 A301 RMK A01 T02330129  RH  054%=      5-min Rain = 0
KMCS 151410Z 21014G20KT 24/13 A3011 RMK A01 T02350131  RH  054%=      5-min Rain = 0
KMCS 151415Z 20011KT 24/13 A3011 RMK A01 T02370131  RH  054%=      5-min Rain = 0
KMCS 151420Z 21010KT 23/14 A3011 RMK A01 T02330137  RH  057%=      5-min Rain = 0
KMCS 151425Z 20009KT 23/14 A301 RMK A01 T02320140  RH  058%=      5-min Rain = 0
KMCS 151430Z 21010KT 23/14 A301 RMK A01 T02330142  RH  059%=      5-min Rain = 0
KMCS 151435Z 23010KT 23/14 A301 RMK A01 T02310144  RH  060%=      5-min Rain = 0
KMCS 151440Z 23011KT 23/14 A301 RMK A01 T02290144  RH  061%=      5-min Rain = 0
KMCS 151445Z 23012KT 23/14 A3009 RMK A01 T02260143  RH  062%=      5-min Rain = 0
KMCS 151450Z 23012KT 23/14 A3009 RMK A01 T02260144  RH  062%=      5-min Rain = 0
KMCS 151455Z 24011KT 22/15 A3008 RMK A01 T02240146  RH  064%=      5-min Rain = 0
KMCS 151500Z 24012KT 23/14 A3008 RMK A01 T02290144  RH  061%=      5-min Rain = 0
KMCS 151505Z 24015KT 24/15 A3007 RMK A01 T02360146  RH  060%=      5-min Rain = 0
KMCS 151510Z 23014G20KT 24/15 A3007 RMK A01 T02430149  RH  058%=      5-min Rain = 0
KMCS 151515Z 23013G18KT 25/15 A3007 RMK A01 T02500148  RH  055%=      5-min Rain = 0
KMCS 151520Z 23013KT 26/15 A3007 RMK A01 T02590147  RH  052%=      5-min Rain = 0
KMCS 151525Z 23013G18KT 27/15 A3007 RMK A01 T02660146  RH  050%=      5-min Rain = 0
KMCS 151530Z 23013KT 27/14 A3007 RMK A01 T02700141  RH  047%=      5-min Rain = 0
KMCS 151535Z 23012KT 27/14 A3007 RMK A01 T02740143  RH  046%=      5-min Rain = 0
KMCS 151540Z 23011KT 28/15 A3007 RMK A01 T02780146  RH  046%=      5-min Rain = 0
KMCS 151545Z 23016G22KT 28/14 A3007 RMK A01 T02800137  RH  043%=      5-min Rain = 0
KMCS 151550Z 23015G20KT 28/14 A3007 RMK A01 T02830137  RH  042%=      5-min Rain = 0
KMCS 151555Z 23015KT 29/14 A3007 RMK A01 T02890138  RH  041%=      5-min Rain = 0
KMCS 151600Z 24015G20KT 29/14 A3007 RMK A01 T02930136  RH  040%=      5-min Rain = 0
KMCS 151605Z 24016G21KT 30/13 A3007 RMK A01 T02960130  RH  038%=      5-min Rain = 0
KMCS 151610Z 24014G19KT 30/13 A3008 RMK A01 T02980131  RH  037%=      5-min Rain = 0
KMCS 151615Z 23013G19KT 30/13 A3008 RMK A01 T03010133  RH  037%=      5-min Rain = 0
KMCS 151620Z 24012G17KT 30/13 A3008 RMK A01 T03020134  RH  037%=      5-min Rain = 0
KMCS 151625Z 24013KT 30/13 A3008 RMK A01 T03040129  RH  036%=      5-min Rain = 0
KMCS 151630Z 24012G18KT 31/13 A3008 RMK A01 T03060129  RH  035%=      5-min Rain = 0
KMCS 151635Z 24013KT 31/12 A3008 RMK A01 T03090124  RH  034%=      5-min Rain = 0
KMCS 151640Z 25012G17KT 31/13 A3008 RMK A01 T03110127  RH  034%=      5-min Rain = 0
KMCS 151645Z 25012G17KT 31/13 A3008 RMK A01 T03120127  RH  034%=      5-min Rain = 0
KMCS 151650Z 25013KT 32/12 A3008 RMK A01 T03150122  RH  032%=      5-min Rain = 0
KMCS 151655Z 25014KT 32/12 A3007 RMK A01 T03150123  RH  032%=      5-min Rain = 0
KMCS 151700Z 24012KT 32/13 A3007 RMK A01 T03160125  RH  032%=      5-min Rain = 0
KMCS 151705Z 26012G17KT 32/13 A3007 RMK A01 T03180132  RH  034%=      5-min Rain = 0
KMCS 151710Z 24013KT 32/14 A3007 RMK A01 T03180137  RH  035%=      5-min Rain = 0
KMCS 151715Z 25013KT 32/14 A3007 RMK A01 T03170137  RH  035%=      5-min Rain = 0
KMCS 151720Z 25013KT 32/14 A3006 RMK A01 T03200140  RH  035%=      5-min Rain = 0
KMCS 151725Z 25013KT 32/14 A3006 RMK A01 T03210135  RH  034%=      5-min Rain = 0
KMCS 151730Z 24012G17KT 32/14 A3006 RMK A01 T03220135  RH  034%=      5-min Rain = 0
KMCS 151735Z 25011KT 33/14 A3006 RMK A01 T03260142  RH  034%=      5-min Rain = 0
KMCS 151740Z 25013KT 33/15 A3006 RMK A01 T03270145  RH  035%=      5-min Rain = 0
KMCS 151745Z 26013KT 33/14 A3006 RMK A01 T03250144  RH  035%=      5-min Rain = 0
KMCS 151750Z 26011G16KT 33/15 A3006 RMK A01 T03290151  RH  036%=      5-min Rain = 0
KMCS 151755Z 25013KT 33/15 A3005 RMK A01 T03300149  RH  035%=      5-min Rain = 0
KMCS 151800Z 25013KT 33/15 A3005 RMK A01 T03310150  RH  035%=      5-min Rain = 0
KMCS 151805Z 23013G18KT 33/15 A3005 RMK A01 T03300151  RH  036%=      5-min Rain = 0
KMCS 151810Z 23011G17KT 33/15 A3006 RMK A01 T03310153  RH  036%=      5-min Rain = 0
KMCS 151815Z 23012KT 33/15 A3005 RMK A01 T03330152  RH  035%=      5-min Rain = 0
KMCS 151820Z 22012KT 33/15 A3005 RMK A01 T03330151  RH  035%=      5-min Rain = 0
KMCS 151825Z 22012KT 33/15 A3005 RMK A01 T03310150  RH  035%=      5-min Rain = 0
KMCS 151830Z 23011KT 33/15 A3005 RMK A01 T03320151  RH  035%=      5-min Rain = 0
KMCS 151835Z 22011KT 33/15 A3005 RMK A01 T03330150  RH  035%=      5-min Rain = 0
KMCS 151840Z 22012KT 33/15 A3005 RMK A01 T03310150  RH  035%=      5-min Rain = 0
KMCS 151845Z 22012KT 33/15 A3005 RMK A01 T03330149  RH  035%=      5-min Rain = 0
KMCS 151850Z 23011KT 33/15 A3005 RMK A01 T03330151  RH  035%=      5-min Rain = 0
KMCS 151855Z 21010KT 34/15 A3005 RMK A01 T03350149  RH  034%=      5-min Rain = 0
KMCS 151900Z 21011G16KT 34/15 A3004 RMK A01 T03360150  RH  034%=      5-min Rain = 0
KMCS 151905Z 20011KT 34/15 A3004 RMK A01 T03380151  RH  034%=      5-min Rain = 0
KMCS 151910Z 22011G18KT 34/15 A3004 RMK A01 T03360147  RH  033%=      5-min Rain = 0
KMCS 151915Z 22010KT 34/15 A3004 RMK A01 T03370150  RH  034%=      5-min Rain = 0
KMCS 151920Z 21011KT 34/14 A3004 RMK A01 T03380141  RH  032%=      5-min Rain = 0
KMCS 151925Z 23008G13KT 34/15 A3004 RMK A01 T03380150  RH  034%=      5-min Rain = 0
KMCS 151930Z 20011KT 34/14 A3004 RMK A01 T03410144  RH  032%=      5-min Rain = 0
KMCS 151935Z 24009KT 34/15 A3003 RMK A01 T03410152  RH  034%=      5-min Rain = 0
KMCS 151940Z 20010G16KT 34/15 A3003 RMK A01 T03420146  RH  032%=      5-min Rain = 0
KMCS 151945Z 21011G17KT 34/15 A3003 RMK A01 T03440149  RH  033%=      5-min Rain = 0
KMCS 151950Z 24008KT 34/16 A3003 RMK A01 T03420156  RH  034%=      5-min Rain = 0
KMCS 151955Z 22009KT 34/15 A3002 RMK A01 T03410148  RH  033%=      5-min Rain = 0
KMCS 152000Z 21009G14KT 35/15 A3002 RMK A01 T03460150  RH  032%=      5-min Rain = 0
KMCS 152005Z 20006KT 35/15 A3002 RMK A01 T03460149  RH  032%=      5-min Rain = 0
KMCS 152010Z 20009G19KT 35/15 A3001 RMK A01 T03480146  RH  031%=      5-min Rain = 0
KMCS 152015Z 20011KT 35/14 A3001 RMK A01 T03450144  RH  031%=      5-min Rain = 0
KMCS 152020Z 20008G17KT 34/14 A3001 RMK A01 T03400144  RH  032%=      5-min Rain = 0
KMCS 152025Z 20011G17KT 34/15 A3001 RMK A01 T03430148  RH  032%=      5-min Rain = 0
KMCS 152030Z 22010G15KT 35/15 A3001 RMK A01 T03450150  RH  033%=      5-min Rain = 0
KMCS 152035Z 22007G12KT 35/15 A30 RMK A01 T03460153  RH  033%=      5-min Rain = 0
KMCS 152040Z 20007KT 35/16 A30 RMK A01 T03470156  RH  033%=      5-min Rain = 0
KMCS 152045Z 17010G15KT 35/15 A2999 RMK A01 T03520152  RH  032%=      5-min Rain = 0
KMCS 152050Z 18011KT 35/15 A2999 RMK A01 T03500154  RH  032%=      5-min Rain = 0
KMCS 152055Z 18012G17KT 35/16 A2999 RMK A01 T03490160  RH  034%=      5-min Rain = 0
KMCS 152100Z 17011KT 35/16 A2999 RMK A01 T03490158  RH  033%=      5-min Rain = 0
KMCS 152105Z 17010KT 35/16 A2999 RMK A01 T03450161  RH  035%=      5-min Rain = 0
KMCS 152110Z 19009KT 35/16 A2998 RMK A01 T03460160  RH  035%=      5-min Rain = 0
KMCS 152115Z 15009KT 35/17 A2998 RMK A01 T03480166  RH  036%=      5-min Rain = 0
KMCS 152120Z 20012KT 35/16 A2998 RMK A01 T03490161  RH  034%=      5-min Rain = 0
KMCS 152125Z 19011KT 35/16 A2998 RMK A01 T03480160  RH  034%=      5-min Rain = 0
KMCS 152130Z 17010G15KT 35/16 A2997 RMK A01 T03500159  RH  034%=      5-min Rain = 0
KMCS 152135Z 18010KT 35/16 A2997 RMK A01 T03510164  RH  035%=      5-min Rain = 0
KMCS 152140Z 19009G14KT 35/16 A2997 RMK A01 T03510163  RH  035%=      5-min Rain = 0
KMCS 152145Z 17011G16KT 35/16 A2997 RMK A01 T03500163  RH  034%=      5-min Rain = 0
KMCS 152150Z 17009G17KT 35/16 A2996 RMK A01 T03500163  RH  034%=      5-min Rain = 0
KMCS 152155Z 18012G17KT 35/16 A2996 RMK A01 T03520160  RH  033%=      5-min Rain = 0
KMCS 152200Z 17010KT 35/16 A2996 RMK A01 T03530163  RH  034%=      5-min Rain = 0
KMCS 152205Z 15010KT 35/17 A2996 RMK A01 T03500165  RH  035%=      5-min Rain = 0
KMCS 152210Z 17011G17KT 35/16 A2996 RMK A01 T03510161  RH  034%=      5-min Rain = 0
KMCS 152215Z 16012G17KT 35/16 A2996 RMK A01 T03510159  RH  034%=      5-min Rain = 0
KMCS 152220Z 16008KT 34/16 A2996 RMK A01 T03440159  RH  035%=      5-min Rain = 0
KMCS 152225Z 17009G14KT 34/16 A2996 RMK A01 T03420161  RH  036%=      5-min Rain = 0
KMCS 152230Z 16007G12KT 34/16 A2996 RMK A01 T03400159  RH  036%=      5-min Rain = 0
KMCS 152235Z 15008G18KT 34/16 A2995 RMK A01 T03400162  RH  036%=      5-min Rain = 0
KMCS 152240Z 17011G19KT 35/16 A2995 RMK A01 T03470158  RH  034%=      5-min Rain = 0
KMCS 152245Z 16010G15KT 35/16 A2995 RMK A01 T03510158  RH  033%=      5-min Rain = 0
KMCS 152250Z 18010KT 35/15 A2995 RMK A01 T03530151  RH  031%=      5-min Rain = 0
KMCS 152255Z 21008G15KT 35/15 A2995 RMK A01 T03480149  RH  032%=      5-min Rain = 0
KMCS 152300Z 17008G13KT 35/16 A2995 RMK A01 T03490155  RH  033%=      5-min Rain = 0
KMCS 152305Z 18010KT 35/15 A2994 RMK A01 T03480152  RH  032%=      5-min Rain = 0
KMCS 152310Z 19009KT 35/15 A2994 RMK A01 T03470151  RH  033%=      5-min Rain = 0
KMCS 152315Z 17010G16KT 35/16 A2994 RMK A01 T03450155  RH  034%=      5-min Rain = 0
KMCS 152320Z 16009KT 34/16 A2994 RMK A01 T03430157  RH  035%=      5-min Rain = 0
KMCS 152325Z 16010G15KT 34/16 A2994 RMK A01 T03430158  RH  035%=      5-min Rain = 0
KMCS 152330Z 17009G15KT 35/16 A2994 RMK A01 T03450160  RH  035%=      5-min Rain = 0
KMCS 152335Z 17011KT 35/16 A2994 RMK A01 T03470158  RH  034%=      5-min Rain = 0
KMCS 152340Z 18012KT 35/16 A2994 RMK A01 T03480156  RH  033%=      5-min Rain = 0
KMCS 152345Z 16010G15KT 35/16 A2994 RMK A01 T03480161  RH  034%=      5-min Rain = 0
KMCS 152350Z 16012G17KT 35/16 A2994 RMK A01 T03460161  RH  035%=      5-min Rain = 0
KMCS 152355Z 17010G15KT 35/16 A2994 RMK A01 T03450161  RH  035%=      5-min Rain = 0
KMCS 160000Z 16011KT 34/16 A2994 RMK A01 T03440164  RH  036%=      5-min Rain = 0
KMCS 160005Z 16011G16KT 34/16 A2994 RMK A01 T03420163  RH  036%=      5-min Rain = 0
KMCS 160010Z 16012KT 34/16 A2993 RMK A01 T03410163  RH  037%=      5-min Rain = 0
KMCS 160015Z 16010KT 34/17 A2993 RMK A01 T03390165  RH  037%=      5-min Rain = 0
KMCS 160020Z 16011G16KT 34/17 A2993 RMK A01 T03380166  RH  038%=      5-min Rain = 0
KMCS 160025Z 16012G17KT 34/17 A2993 RMK A01 T03360165  RH  038%=      5-min Rain = 0
KMCS 160030Z 16012G17KT 33/17 A2993 RMK A01 T03340165  RH  038%=      5-min Rain = 0
KMCS 160035Z 16012G18KT 33/17 A2993 RMK A01 T03330165  RH  039%=      5-min Rain = 0
KMCS 160040Z 16012G17KT 33/17 A2993 RMK A01 T03310165  RH  039%=      5-min Rain = 0
KMCS 160045Z 16011KT 33/17 A2994 RMK A01 T03290166  RH  039%=      5-min Rain = 0
KMCS 160050Z 16010KT 33/17 A2993 RMK A01 T03280166  RH  040%=      5-min Rain = 0
KMCS 160055Z 16010KT 33/17 A2993 RMK A01 T03250166  RH  040%=      5-min Rain = 0
KMCS 160100Z 16010KT 32/17 A2993 RMK A01 T03230167  RH  041%=      5-min Rain = 0
KMCS 160105Z 16010KT 32/17 A2993 RMK A01 T03210167  RH  042%=      5-min Rain = 0
KMCS 160110Z 16010KT 32/17 A2993 RMK A01 T03190167  RH  042%=      5-min Rain = 0
KMCS 160115Z 16010KT 32/17 A2993 RMK A01 T03170167  RH  043%=      5-min Rain = 0
KMCS 160120Z 16009G14KT 32/17 A2994 RMK A01 T03150168  RH  044%=      5-min Rain = 0
KMCS 160125Z 16010KT 31/17 A2994 RMK A01 T03120167  RH  044%=      5-min Rain = 0
KMCS 160130Z 17012G17KT 31/16 A2994 RMK A01 T03120163  RH  043%=      5-min Rain = 0
KMCS 160135Z 18011KT 31/16 A2994 RMK A01 T03100160  RH  042%=      5-min Rain = 0
KMCS 160140Z 18011KT 31/16 A2994 RMK A01 T03060159  RH  043%=      5-min Rain = 0
KMCS 160145Z 17011KT 30/16 A2994 RMK A01 T03030158  RH  044%=      5-min Rain = 0
KMCS 160150Z 18010KT 30/16 A2994 RMK A01 T02990156  RH  044%=      5-min Rain = 0
KMCS 160155Z 18010G15KT 30/16 A2995 RMK A01 T02960155  RH  045%=      5-min Rain = 0
KMCS 160200Z 18009G14KT 29/16 A2994 RMK A01 T02920155  RH  045%=      5-min Rain = 0
KMCS 160205Z 17010KT 29/15 A2994 RMK A01 T02890153  RH  046%=      5-min Rain = 0
KMCS 160210Z 17010KT 29/15 A2994 RMK A01 T02890152  RH  045%=      5-min Rain = 0
KMCS 160215Z 17009KT 29/15 A2994 RMK A01 T02870151  RH  046%=      5-min Rain = 0
KMCS 160220Z 17009KT 29/15 A2995 RMK A01 T02850152  RH  046%=      5-min Rain = 0
KMCS 160225Z 18008KT 28/15 A2995 RMK A01 T02830153  RH  047%=      5-min Rain = 0
KMCS 160230Z 17007KT 28/15 A2995 RMK A01 T02800154  RH  049%=      5-min Rain = 0
KMCS 160235Z 17007KT 28/16 A2995 RMK A01 T02770155  RH  050%=      5-min Rain = 0
KMCS 160240Z 16009KT 28/16 A2995 RMK A01 T02780155  RH  049%=      5-min Rain = 0
KMCS 160245Z 17010KT 28/16 A2995 RMK A01 T02790155  RH  049%=      5-min Rain = 0
KMCS 160250Z 17009KT 28/16 A2996 RMK A01 T02780157  RH  050%=      5-min Rain = 0
KMCS 160255Z 17009KT 28/16 A2996 RMK A01 T02770158  RH  050%=      5-min Rain = 0
KMCS 160300Z 17010KT 28/16 A2996 RMK A01 T02760158  RH  051%=      5-min Rain = 0
KMCS 160305Z 18009KT 27/16 A2997 RMK A01 T02730159  RH  052%=      5-min Rain = 0
KMCS 160310Z 18010KT 27/16 A2998 RMK A01 T02700160  RH  053%=      5-min Rain = 0
KMCS 160315Z 18009KT 27/16 A2998 RMK A01 T02680161  RH  055%=      5-min Rain = 0
KMCS 160320Z 19009KT 27/16 A2998 RMK A01 T02650161  RH  055%=      5-min Rain = 0
KMCS 160325Z 19010KT 26/16 A2998 RMK A01 T02630160  RH  056%=      5-min Rain = 0
KMCS 160330Z 19009KT 26/16 A2998 RMK A01 T02610159  RH  056%=      5-min Rain = 0
KMCS 160335Z 19009KT 26/16 A2999 RMK A01 T02600159  RH  056%=      5-min Rain = 0
KMCS 160340Z 19009KT 26/16 A2999 RMK A01 T02580159  RH  057%=      5-min Rain = 0
KMCS 160345Z 20009KT 26/16 A2999 RMK A01 T02560158  RH  057%=      5-min Rain = 0
KMCS 160350Z 19009KT 26/16 A2999 RMK A01 T02550156  RH  057%=      5-min Rain = 0
KMCS 160355Z 19010KT 25/15 A2999 RMK A01 T02530154  RH  057%=      5-min Rain = 0
KMCS 160400Z 19009KT 25/15 A2999 RMK A01 T02520151  RH  056%=      5-min Rain = 0
KMCS 160405Z 19009KT 25/15 A2999 RMK A01 T02510150  RH  056%=      5-min Rain = 0
KMCS 160410Z 19008KT 25/15 A2999 RMK A01 T02490149  RH  056%=      5-min Rain = 0
KMCS 160415Z 20008KT 25/15 A2999 RMK A01 T02470149  RH  057%=      5-min Rain = 0
KMCS 160420Z 20009KT 25/15 A2999 RMK A01 T02470149  RH  057%=      5-min Rain = 0
KMCS 160425Z 20008KT 25/15 A2999 RMK A01 T02450149  RH  057%=      5-min Rain = 0
KMCS 160430Z 21009KT 25/15 A2999 RMK A01 T02450148  RH  057%=      5-min Rain = 0
KMCS 160435Z 20009KT 25/15 A2999 RMK A01 T02450147  RH  057%=      5-min Rain = 0
KMCS 160440Z 20008KT 24/15 A2999 RMK A01 T02440146  RH  057%=      5-min Rain = 0
KMCS 160445Z 20007KT 24/15 A2999 RMK A01 T02430145  RH  057%=      5-min Rain = 0
KMCS 160450Z 21008KT 24/14 A2999 RMK A01 T02440143  RH  055%=      5-min Rain = 0
KMCS 160455Z 21007KT 24/14 A2999 RMK A01 T02430142  RH  056%=      5-min Rain = 0

Page generated in 0.017 seconds.